South Arkansas Regional At Goodwin Field El Dorado US
ICAO: KELD
IATA: ELD
Category: Medium
Scheduled Services: Yes

Elevation: 277 ft
TransAlt. 18000 ft.

Airport Communications:
FORT WORTH CNTR:126.32
ASOS:118.325
JONESBORO RDO:122.65
CTAF/UNICOM:123

KELD Zoom In..

Runways:

(A) RW 04 length 6601 ft width 150 ft
---- / hdg 43

(B) RW 13 length 5100 ft width 100 ft
---- / hdg 133

(C) RW 17 length 3733 ft width 75 ft
---- / hdg 178

(D) RW 22 length 6601 ft width 150 ft
ILS 111.10 / hdg 223

(E) RW 31 length 5100 ft width 100 ft
---- / hdg 313

(F) RW 35 length 3733 ft width 75 ft
---- / hdg 358

Location; KELD
Day. 22 / Time. 04.08 Zulu
* Altimeter: 29.85
* Temperature: 18° c. 64.4°f.
* Wind from: 170° Speed 13 kn with Gusts up to 21 kn.
Dewpoint: 17° c.
Visibility: 10 Statute Miles.
Clouds: Broken 1700 ft.
Clouds: Broken 4900 ft.

KELD 220408Z AUTO 17013G21KT 10SM BKN017 BKN049 18/17 A2985 RMK AO2 T01830172 $


Wind From 170°
Speed 13 kn.

jpsM music video
CHECK IT OUT

jpsM - It Moves..

 
jpsmedia.com for Web Design  worldairports.se 2018   terms of use